createdAt,value
2022-12-22T00:00:02.383Z,11.90
2022-12-22T00:02:58.568Z,14.02
2022-12-22T00:05:44.621Z,13.15
2022-12-22T00:08:30.658Z,12.10
2022-12-22T00:11:17.401Z,11.27
2022-12-22T00:14:04.981Z,11.02
2022-12-22T00:16:55.436Z,11.32
2022-12-22T00:19:42.229Z,12.35
2022-12-22T00:22:39.238Z,12.43
2022-12-22T00:25:25.542Z,12.25
2022-12-22T00:28:11.362Z,12.18
2022-12-22T00:30:57.392Z,12.68
2022-12-22T00:33:43.128Z,13.15
2022-12-22T00:36:31.709Z,12.57
2022-12-22T00:39:17.489Z,11.93
2022-12-22T00:42:03.794Z,11.85
2022-12-22T00:44:49.472Z,11.95
2022-12-22T00:47:47.542Z,12.25
2022-12-22T00:50:35.003Z,11.57
2022-12-22T00:53:22.059Z,13.52
2022-12-22T00:56:07.989Z,11.90
2022-12-22T00:58:54.516Z,11.73
2022-12-22T01:01:40.386Z,13.32
2022-12-22T01:04:29.627Z,11.73
2022-12-22T01:07:16.402Z,11.35
2022-12-22T01:10:06.426Z,10.98
2022-12-22T01:12:54.701Z,12.35
2022-12-22T01:15:40.877Z,12.75
2022-12-22T01:18:26.963Z,12.38
2022-12-22T01:21:13.610Z,12.07
2022-12-22T01:24:00.580Z,11.13
2022-12-22T01:26:46.622Z,12.60
2022-12-22T01:29:32.379Z,12.35
2022-12-22T01:32:18.516Z,13.88
2022-12-22T01:35:04.228Z,12.90
2022-12-22T01:37:50.305Z,13.15
2022-12-22T01:40:43.647Z,12.35
2022-12-22T01:43:48.233Z,13.05
2022-12-22T01:49:43.743Z,11.82
2022-12-22T01:52:31.917Z,11.43
2022-12-22T01:55:22.399Z,12.70
2022-12-22T01:58:08.224Z,13.40
2022-12-22T02:00:54.360Z,12.45
2022-12-22T02:03:42.324Z,11.93
2022-12-22T02:06:53.086Z,12.23
2022-12-22T02:10:01.112Z,12.23
2022-12-22T02:13:28.363Z,11.85
2022-12-22T02:16:50.745Z,12.98
2022-12-22T02:20:05.942Z,12.23
2022-12-22T02:23:08.225Z,12.23
2022-12-22T02:26:09.307Z,11.27
2022-12-22T02:28:55.680Z,12.15
2022-12-22T02:31:41.739Z,13.55
2022-12-22T02:34:34.029Z,12.20
2022-12-22T02:37:33.880Z,10.93
2022-12-22T02:40:41.195Z,11.68
2022-12-22T02:43:40.908Z,12.75
2022-12-22T02:46:40.109Z,11.23
2022-12-22T02:49:36.471Z,10.90
2022-12-22T02:52:34.419Z,10.98
2022-12-22T02:55:21.578Z,12.20
2022-12-22T02:58:10.662Z,11.15
2022-12-22T03:00:58.396Z,13.05
2022-12-22T03:03:44.764Z,11.20
2022-12-22T03:06:30.983Z,13.20
2022-12-22T03:09:16.621Z,12.90
2022-12-22T03:12:02.373Z,13.25
2022-12-22T03:14:48.299Z,13.27
2022-12-22T03:17:34.176Z,12.38
2022-12-22T03:20:20.133Z,14.75
2022-12-22T03:23:06.048Z,11.57
2022-12-22T03:25:52.837Z,11.88
2022-12-22T03:28:22.634Z,12.02
2022-12-22T03:31:02.292Z,13.52
2022-12-22T03:33:30.125Z,11.38
2022-12-22T03:35:58.368Z,13.48
2022-12-22T03:38:26.203Z,12.35
2022-12-22T03:40:53.755Z,13.43
2022-12-22T03:43:39.947Z,12.35
2022-12-22T03:46:29.193Z,12.70
2022-12-22T03:49:10.273Z,12.52
2022-12-22T03:51:49.055Z,13.20
2022-12-22T03:54:22.961Z,13.20
2022-12-22T03:56:51.178Z,12.77
2022-12-22T03:59:19.575Z,13.77
2022-12-22T04:01:53.217Z,14.15
2022-12-22T04:06:49.253Z,13.30
2022-12-22T04:09:16.703Z,14.10
2022-12-22T04:12:02.570Z,13.13
2022-12-22T04:14:34.399Z,13.88
2022-12-22T04:17:06.485Z,13.05
2022-12-22T04:19:34.253Z,14.65
2022-12-22T04:22:02.046Z,13.73
2022-12-22T04:24:29.410Z,13.05
2022-12-22T04:26:56.814Z,13.32
2022-12-22T04:29:24.194Z,14.18
2022-12-22T04:31:51.832Z,12.98
2022-12-22T04:34:19.243Z,14.27
2022-12-22T04:36:46.502Z,13.43
2022-12-22T04:39:13.820Z,13.85
2022-12-22T04:41:41.205Z,13.80
2022-12-22T04:44:08.506Z,12.73
2022-12-22T04:46:35.806Z,12.05
2022-12-22T04:49:03.196Z,12.10
2022-12-22T04:51:30.499Z,12.55
2022-12-22T04:53:57.821Z,12.20
2022-12-22T04:56:25.170Z,9.68
2022-12-22T04:58:52.499Z,11.60
2022-12-22T05:01:20.180Z,10.27
2022-12-22T05:03:47.657Z,9.93
2022-12-22T05:06:15.426Z,9.55
2022-12-22T05:08:43.123Z,9.75
2022-12-22T05:11:10.514Z,11.63
2022-12-22T05:13:38.059Z,11.98
2022-12-22T05:16:07.892Z,10.73
2022-12-22T05:18:36.424Z,12.68
2022-12-22T05:21:06.271Z,12.07
2022-12-22T05:23:33.666Z,12.25
2022-12-22T05:26:00.977Z,11.55
2022-12-22T05:28:28.436Z,11.82
2022-12-22T05:30:55.882Z,10.18
2022-12-22T05:33:23.266Z,12.70
2022-12-22T05:35:50.597Z,13.70
2022-12-22T05:38:17.851Z,10.93
2022-12-22T05:40:45.135Z,12.63
2022-12-22T05:43:12.473Z,13.18
2022-12-22T05:45:40.064Z,11.35
2022-12-22T05:48:07.615Z,12.80
2022-12-22T05:50:34.986Z,11.25
2022-12-22T05:53:06.426Z,13.77
2022-12-22T05:55:34.652Z,12.73
2022-12-22T05:58:02.199Z,12.98
2022-12-22T06:00:31.678Z,13.32
2022-12-22T06:02:59.583Z,13.13
2022-12-22T06:05:27.047Z,11.68
2022-12-22T06:07:54.328Z,12.43
2022-12-22T06:10:21.876Z,11.85
2022-12-22T06:12:49.096Z,11.57
2022-12-22T06:15:16.484Z,12.82
2022-12-22T06:17:45.370Z,11.88
2022-12-22T06:20:14.203Z,11.32
2022-12-22T06:22:41.455Z,12.40
2022-12-22T06:25:13.746Z,12.38
2022-12-22T06:27:45.296Z,11.57
2022-12-22T06:30:12.926Z,12.52
2022-12-22T06:32:41.009Z,11.45
2022-12-22T06:35:09.896Z,12.90
2022-12-22T06:37:37.258Z,12.73
2022-12-22T06:40:05.052Z,11.85
2022-12-22T06:42:50.638Z,12.98
2022-12-22T06:45:18.064Z,12.85
2022-12-22T06:47:45.338Z,11.63
2022-12-22T06:50:12.687Z,11.65
2022-12-22T06:52:40.027Z,13.07
2022-12-22T06:55:08.012Z,11.57
2022-12-22T06:57:35.331Z,11.75
2022-12-22T07:00:03.173Z,12.07
2022-12-22T07:02:31.610Z,11.30
2022-12-22T07:04:59.125Z,11.13
2022-12-22T07:07:26.404Z,12.43
2022-12-22T07:09:55.544Z,11.00
2022-12-22T07:12:24.097Z,12.90
2022-12-22T07:14:51.463Z,12.02
2022-12-22T07:17:18.720Z,11.55
2022-12-22T07:19:46.103Z,11.88
2022-12-22T07:22:13.317Z,12.75
2022-12-22T07:24:40.641Z,12.93
2022-12-22T07:27:08.037Z,11.25
2022-12-22T07:29:36.422Z,10.02
2022-12-22T07:32:03.944Z,13.20
2022-12-22T07:34:31.296Z,12.57
2022-12-22T07:36:58.528Z,12.48
2022-12-22T07:39:25.859Z,11.18
2022-12-22T07:42:11.440Z,12.25
2022-12-22T07:44:38.751Z,10.88
2022-12-22T07:47:06.038Z,10.52
2022-12-22T07:49:51.898Z,12.18
2022-12-22T07:52:20.480Z,11.48
2022-12-22T07:54:47.712Z,10.13
2022-12-22T07:57:15.079Z,10.82
2022-12-22T07:59:42.330Z,12.20
2022-12-22T08:02:12.643Z,11.32
2022-12-22T08:04:40.363Z,11.70
2022-12-22T08:07:07.743Z,11.63
2022-12-22T08:09:35.038Z,10.68
2022-12-22T08:12:02.404Z,11.32
2022-12-22T08:14:29.610Z,11.93
2022-12-22T08:16:56.971Z,10.85
2022-12-22T08:19:24.240Z,12.43
2022-12-22T08:21:53.116Z,10.35
2022-12-22T08:24:21.170Z,11.00
2022-12-22T08:26:53.202Z,10.98
2022-12-22T08:29:32.111Z,12.20
2022-12-22T08:32:00.758Z,10.50
2022-12-22T08:34:28.209Z,10.63
2022-12-22T08:36:59.768Z,11.55
2022-12-22T08:39:33.117Z,12.00
2022-12-22T08:42:01.616Z,10.63
2022-12-22T08:44:30.792Z,11.63
2022-12-22T08:46:59.694Z,11.85
2022-12-22T08:49:27.577Z,12.02
2022-12-22T08:51:55.201Z,10.82
2022-12-22T08:54:22.989Z,10.75
2022-12-22T08:56:50.687Z,10.65
2022-12-22T08:59:18.158Z,11.13
2022-12-22T09:01:51.223Z,11.05
2022-12-22T09:04:21.864Z,11.02
2022-12-22T09:06:52.967Z,11.48
2022-12-22T09:09:20.896Z,10.70
2022-12-22T09:11:48.349Z,11.57
2022-12-22T09:14:15.704Z,11.75
2022-12-22T09:16:43.151Z,12.15
2022-12-22T09:19:10.642Z,11.77
2022-12-22T09:21:38.249Z,10.70
2022-12-22T09:24:07.732Z,11.68
2022-12-22T09:26:35.470Z,11.57
2022-12-22T09:29:03.810Z,10.60
2022-12-22T09:31:31.311Z,10.60
2022-12-22T09:33:59.162Z,11.32
2022-12-22T09:36:30.191Z,11.13
2022-12-22T09:38:57.952Z,11.95
2022-12-22T09:41:55.018Z,10.88
2022-12-22T09:44:41.850Z,11.20
2022-12-22T09:47:40.406Z,10.98
2022-12-22T09:50:16.089Z,10.75
2022-12-22T09:52:48.825Z,10.93
2022-12-22T09:55:22.270Z,10.43
2022-12-22T09:57:49.615Z,10.98
2022-12-22T10:00:19.720Z,10.13
2022-12-22T10:03:12.779Z,11.35
2022-12-22T10:05:54.721Z,11.20
2022-12-22T10:08:35.291Z,9.77
2022-12-22T10:11:02.733Z,10.60
2022-12-22T10:13:30.534Z,11.13
2022-12-22T10:15:58.535Z,10.77
2022-12-22T10:18:28.169Z,10.02
2022-12-22T10:21:13.469Z,9.68
2022-12-22T10:23:46.562Z,10.15
2022-12-22T10:26:34.493Z,10.90
2022-12-22T10:29:10.557Z,8.95
2022-12-22T10:31:57.686Z,9.48
2022-12-22T10:34:25.215Z,9.50
2022-12-22T10:36:56.901Z,9.35
2022-12-22T10:39:35.759Z,9.57
2022-12-22T10:42:10.157Z,9.48
2022-12-22T10:44:38.763Z,8.18
2022-12-22T10:47:19.697Z,8.55
2022-12-22T10:49:49.815Z,8.32
2022-12-22T10:52:29.522Z,9.48
2022-12-22T10:55:28.962Z,8.32
2022-12-22T10:58:21.750Z,9.05
2022-12-22T11:01:04.039Z,8.25
2022-12-22T11:03:32.531Z,8.48
2022-12-22T11:06:01.273Z,9.23
2022-12-22T11:08:31.625Z,9.05
2022-12-22T11:11:10.303Z,8.73
2022-12-22T11:14:01.940Z,8.02
2022-12-22T11:16:44.510Z,8.32
2022-12-22T11:19:40.432Z,8.70
2022-12-22T11:22:24.830Z,8.00
2022-12-22T11:24:55.159Z,10.07
2022-12-22T11:27:52.945Z,7.93
2022-12-22T11:30:46.326Z,8.45
2022-12-22T11:33:29.605Z,8.90
2022-12-22T11:36:06.360Z,7.35
2022-12-22T11:38:54.757Z,8.20
2022-12-22T11:41:43.988Z,8.30
2022-12-22T11:44:30.123Z,8.32
2022-12-22T11:47:04.101Z,7.32
2022-12-22T11:50:46.147Z,6.97
2022-12-22T11:53:04.523Z,7.72
2022-12-22T11:55:47.061Z,7.35
2022-12-22T11:58:50.915Z,7.82
2022-12-22T12:01:44.374Z,7.40
2022-12-22T12:04:49.395Z,7.30
2022-12-22T12:07:26.218Z,7.18
2022-12-22T12:10:29.004Z,6.53
2022-12-22T12:13:27.372Z,6.60
2022-12-22T12:16:04.500Z,7.53
2022-12-22T12:18:56.058Z,7.32
2022-12-22T12:21:49.712Z,6.53
2022-12-22T12:24:19.671Z,7.07
2022-12-22T12:27:12.134Z,6.60
2022-12-22T12:30:35.721Z,7.68
2022-12-22T12:33:05.514Z,6.68
2022-12-22T12:35:48.823Z,7.32
2022-12-22T12:41:54.508Z,6.85
2022-12-22T12:44:26.733Z,6.10
2022-12-22T12:46:57.049Z,6.55
2022-12-22T12:49:36.481Z,7.70
2022-12-22T12:52:06.038Z,7.13
2022-12-22T12:54:33.290Z,7.20
2022-12-22T12:57:10.636Z,7.05
2022-12-22T12:59:40.741Z,6.80
2022-12-22T13:02:28.801Z,6.10
2022-12-22T13:05:14.581Z,6.90
2022-12-22T13:08:08.462Z,6.93
2022-12-22T13:10:55.695Z,7.65
2022-12-22T13:13:26.056Z,6.53
2022-12-22T13:16:02.733Z,6.60
2022-12-22T13:18:36.073Z,6.43
2022-12-22T13:21:42.476Z,7.10
2022-12-22T13:26:46.007Z,6.95
2022-12-22T13:29:28.783Z,7.65
2022-12-22T13:32:15.598Z,6.10
2022-12-22T13:37:55.365Z,6.05
2022-12-22T13:40:25.603Z,6.03
2022-12-22T13:42:54.752Z,5.47
2022-12-22T13:45:22.006Z,5.35
2022-12-22T13:47:49.859Z,6.32
2022-12-22T13:50:20.718Z,5.32
2022-12-22T13:52:49.360Z,5.68
2022-12-22T13:55:21.776Z,5.55
2022-12-22T13:57:54.724Z,6.40
2022-12-22T14:00:27.292Z,5.70
2022-12-22T14:02:55.002Z,4.60
2022-12-22T14:05:22.739Z,5.50
2022-12-22T14:08:07.378Z,4.82
2022-12-22T14:10:44.825Z,4.60
2022-12-22T14:13:16.359Z,3.60
2022-12-22T14:15:45.117Z,3.80
2022-12-22T14:18:17.772Z,3.10
2022-12-22T14:20:47.498Z,3.25
2022-12-22T14:23:20.852Z,3.22
2022-12-22T14:25:50.197Z,2.65
2022-12-22T14:28:31.898Z,3.30
2022-12-22T14:31:01.041Z,2.97
2022-12-22T14:33:33.710Z,3.20
2022-12-22T14:36:27.181Z,3.25
2022-12-22T14:39:07.170Z,3.67
2022-12-22T14:41:51.495Z,3.72
2022-12-22T14:44:42.456Z,3.67
2022-12-22T14:47:15.164Z,3.65
2022-12-22T14:49:53.141Z,3.53
2022-12-22T14:52:46.731Z,3.78
2022-12-22T14:55:31.131Z,3.50
2022-12-22T14:58:15.094Z,4.13
2022-12-22T15:03:25.871Z,3.35
2022-12-22T15:05:53.565Z,4.05
2022-12-22T15:08:42.917Z,4.18
2022-12-22T15:11:17.249Z,3.63
2022-12-22T15:13:46.479Z,3.70
2022-12-22T15:16:17.420Z,3.55
2022-12-22T15:18:45.193Z,3.58
2022-12-22T15:21:15.515Z,3.58
2022-12-22T15:23:43.423Z,3.33
2022-12-22T15:26:11.657Z,3.50
2022-12-22T15:28:39.135Z,3.30
2022-12-22T15:31:15.083Z,3.25
2022-12-22T15:33:43.186Z,3.33
2022-12-22T15:36:12.748Z,3.17
2022-12-22T15:38:40.831Z,3.55
2022-12-22T15:41:08.651Z,3.03
2022-12-22T15:46:24.880Z,3.30
2022-12-22T15:48:52.682Z,3.22
2022-12-22T15:51:28.646Z,3.38
2022-12-22T15:53:57.749Z,3.35
2022-12-22T15:56:27.652Z,3.13
2022-12-22T15:58:55.911Z,3.00
2022-12-22T16:01:23.220Z,3.67
2022-12-22T16:03:50.713Z,2.97
2022-12-22T16:06:20.156Z,3.17
2022-12-22T16:08:53.555Z,2.97
2022-12-22T16:11:21.011Z,3.58
2022-12-22T16:13:50.455Z,3.30
2022-12-22T16:16:18.216Z,3.22
2022-12-22T16:18:45.657Z,3.10
2022-12-22T16:21:19.099Z,3.10
2022-12-22T16:23:49.229Z,2.88
2022-12-22T16:26:19.740Z,3.40
2022-12-22T16:28:47.253Z,3.05
2022-12-22T16:31:25.467Z,2.58
2022-12-22T16:33:53.151Z,2.65
2022-12-22T16:36:20.565Z,2.60
2022-12-22T16:38:48.663Z,2.53
2022-12-22T16:41:25.055Z,3.03
2022-12-22T16:43:59.493Z,3.10
2022-12-22T16:46:31.225Z,2.90
2022-12-22T16:49:01.432Z,3.05
2022-12-22T16:51:37.010Z,3.65
2022-12-22T16:54:22.945Z,3.60
2022-12-22T16:56:53.200Z,3.35
2022-12-22T16:59:20.590Z,3.53
2022-12-22T17:01:52.967Z,3.22
2022-12-22T17:04:30.549Z,3.05
2022-12-22T17:06:59.922Z,3.30
2022-12-22T17:09:39.010Z,3.78
2022-12-22T17:12:07.423Z,4.00
2022-12-22T17:14:39.541Z,4.57
2022-12-22T17:17:10.318Z,5.05
2022-12-22T17:19:43.634Z,3.90
2022-12-22T17:22:38.473Z,4.25
2022-12-22T17:25:08.951Z,4.00
2022-12-22T17:27:39.245Z,3.67
2022-12-22T17:30:18.233Z,4.15
2022-12-22T17:32:46.295Z,4.35
2022-12-22T17:35:21.038Z,5.10
2022-12-22T17:37:49.962Z,5.07
2022-12-22T17:40:26.781Z,4.10
2022-12-22T17:42:54.656Z,4.82
2022-12-22T17:45:22.048Z,4.85
2022-12-22T17:47:49.446Z,4.70
2022-12-22T17:50:19.985Z,4.57
2022-12-22T17:52:48.309Z,4.10
2022-12-22T17:56:01.215Z,4.07
2022-12-22T17:58:15.649Z,4.25
2022-12-22T18:00:43.512Z,4.43
2022-12-22T18:03:15.502Z,4.38
2022-12-22T18:05:48.760Z,4.28
2022-12-22T18:08:20.830Z,4.10
2022-12-22T18:10:48.698Z,4.95
2022-12-22T18:13:19.975Z,4.63
2022-12-22T18:15:47.714Z,4.15
2022-12-22T18:18:17.171Z,4.57
2022-12-22T18:20:45.535Z,5.10
2022-12-22T18:23:26.123Z,4.95
2022-12-22T18:25:53.645Z,5.97
2022-12-22T18:28:21.037Z,5.00
2022-12-22T18:30:48.445Z,5.13
2022-12-22T18:33:15.712Z,5.13
2022-12-22T18:38:32.113Z,4.82
2022-12-22T18:40:59.745Z,5.57
2022-12-22T18:43:27.095Z,5.25
2022-12-22T18:45:54.604Z,5.30
2022-12-22T18:48:22.181Z,5.43
2022-12-22T18:50:49.547Z,4.68
2022-12-22T18:53:23.317Z,6.20
2022-12-22T18:55:50.732Z,8.73
2022-12-22T18:58:18.016Z,7.88
2022-12-22T19:00:45.557Z,5.63
2022-12-22T19:03:19.024Z,5.72
2022-12-22T19:05:47.817Z,6.28
2022-12-22T19:08:20.697Z,7.75
2022-12-22T19:10:59.022Z,7.20
2022-12-22T19:13:35.554Z,4.80
2022-12-22T19:16:03.288Z,6.20
2022-12-22T19:18:32.471Z,4.85
2022-12-22T19:21:00.105Z,4.50
2022-12-22T19:23:27.423Z,5.20
2022-12-22T19:26:02.144Z,5.93
2022-12-22T19:28:36.579Z,3.85
2022-12-22T19:31:06.699Z,3.10
2022-12-22T19:38:50.534Z,3.10
2022-12-22T19:41:45.007Z,2.67
2022-12-22T19:47:19.595Z,2.78
2022-12-22T19:49:48.452Z,2.35
2022-12-22T19:52:15.870Z,2.53
2022-12-22T19:54:43.224Z,2.65
2022-12-22T19:57:21.328Z,2.67
2022-12-22T19:59:52.149Z,3.00
2022-12-22T20:02:27.235Z,2.75
2022-12-22T20:04:55.449Z,2.40
2022-12-22T20:07:25.432Z,2.63
2022-12-22T20:09:53.301Z,3.10
2022-12-22T20:12:39.357Z,3.95
2022-12-22T20:15:18.712Z,3.20
2022-12-22T20:17:47.814Z,3.42
2022-12-22T20:20:33.078Z,3.92
2022-12-22T20:23:09.925Z,4.10
2022-12-22T20:25:42.150Z,4.22
2022-12-22T20:28:24.665Z,4.15
2022-12-22T20:30:53.243Z,4.78
2022-12-22T20:33:22.026Z,4.95
2022-12-22T20:35:50.820Z,4.43
2022-12-22T20:38:29.556Z,4.40
2022-12-22T20:40:56.941Z,4.63
2022-12-22T20:43:26.240Z,5.25
2022-12-22T20:45:57.627Z,5.00
2022-12-22T20:48:36.667Z,3.88
2022-12-22T20:51:08.011Z,5.22
2022-12-22T20:53:35.302Z,4.57
2022-12-22T20:56:03.664Z,5.00
2022-12-22T20:58:35.344Z,4.50
2022-12-22T21:01:02.950Z,5.63
2022-12-22T21:03:30.318Z,4.90
2022-12-22T21:05:57.700Z,5.20
2022-12-22T21:08:26.719Z,5.50
2022-12-22T21:10:55.407Z,5.40
2022-12-22T21:13:22.779Z,5.50
2022-12-22T21:15:51.743Z,5.30
2022-12-22T21:18:24.124Z,5.57
2022-12-22T21:20:52.354Z,5.03
2022-12-22T21:23:19.607Z,4.70
2022-12-22T21:25:52.028Z,5.80
2022-12-22T21:28:32.171Z,6.40
2022-12-22T21:31:00.023Z,5.28
2022-12-22T21:33:27.873Z,5.43
2022-12-22T21:35:57.067Z,5.03
2022-12-22T21:38:27.749Z,5.28
2022-12-22T21:40:55.508Z,5.72
2022-12-22T21:43:22.772Z,5.55
2022-12-22T21:45:50.936Z,5.75
2022-12-22T21:48:21.276Z,5.65
2022-12-22T21:53:31.417Z,6.70
2022-12-22T21:55:58.633Z,5.65
2022-12-22T21:58:25.940Z,6.53
2022-12-22T22:00:53.267Z,6.88
2022-12-22T22:03:20.657Z,6.45
2022-12-22T22:05:48.197Z,7.70
2022-12-22T22:08:15.651Z,6.45
2022-12-22T22:10:44.148Z,6.18
2022-12-22T22:13:15.698Z,7.13
2022-12-22T22:15:43.318Z,6.32
2022-12-22T22:18:19.491Z,6.85
2022-12-22T22:20:47.321Z,6.30
2022-12-22T22:23:15.185Z,6.35
2022-12-22T22:25:42.476Z,7.32
2022-12-22T22:28:11.780Z,6.00
2022-12-22T22:30:42.158Z,6.13
2022-12-22T22:33:11.134Z,7.10
2022-12-22T22:35:40.663Z,5.88
2022-12-22T22:38:17.920Z,6.07
2022-12-22T22:40:47.062Z,6.32
2022-12-22T22:43:15.198Z,6.70
2022-12-22T22:45:42.780Z,6.65
2022-12-22T22:48:20.395Z,6.13
2022-12-22T22:50:47.801Z,6.13
2022-12-22T22:53:15.422Z,6.57
2022-12-22T22:55:42.971Z,6.88
2022-12-22T22:58:11.673Z,6.97
2022-12-22T23:00:39.913Z,7.32
2022-12-22T23:03:07.344Z,6.32
2022-12-22T23:05:36.306Z,6.95
2022-12-22T23:08:03.646Z,7.05
2022-12-22T23:10:34.793Z,7.40
2022-12-22T23:13:05.145Z,7.80
2022-12-22T23:15:32.474Z,9.27
2022-12-22T23:18:00.212Z,9.55
2022-12-22T23:20:28.675Z,8.85
2022-12-22T23:22:56.037Z,9.90
2022-12-22T23:25:23.291Z,9.30
2022-12-22T23:27:50.595Z,9.32
2022-12-22T23:30:17.903Z,10.15
2022-12-22T23:32:45.181Z,9.32
2022-12-22T23:35:12.448Z,8.80
2022-12-22T23:37:39.792Z,10.35
2022-12-22T23:42:57.275Z,10.23
2022-12-22T23:45:24.812Z,9.55
2022-12-22T23:47:52.108Z,9.55
2022-12-22T23:50:19.452Z,9.25
2022-12-22T23:52:49.297Z,9.95
2022-12-22T23:55:17.271Z,10.60
2022-12-22T23:57:44.604Z,9.73
